CheckWX is a tool to help pilots better visualize weather data.  It is not intended as a substitute for an official pre-flight weather briefing.

19:47:36 UTC

LFPN METAR
Toussus-le-Noble Airport
Toussus-le-Noble, France
Current

18 mins ago

LFPN 271930Z AUTO 22014KT 9999 FEW015 OVC032 08/06 Q1000 TEMPO 22015G35KT 4000 -SHRA BKN010 SCT015TCU
Observed
Jan-27 @ 19:30 UTC
Wind
  • 220° at 14 KTS
Visibility
10,000+ meters
Flight Rules
VFR
Cloud Levels
  • Few at 1,500' AGL
  • Overcast at 3,200' AGL
Temperature
C / 46°F
Dewpoint
C / 43°F
Humidity
87%
Altimeter
29.53" Hg
Pressure
999.92 hPa
Previous

48 mins ago

LFPN 271900Z AUTO 21015KT 9999 BKN014 OVC029 08/06 Q1000 TEMPO 22015G35KT 4000 -SHRA BKN010 SCT015TCU
Observed
Jan-27 @ 19:00 UTC
Wind
  • 210° at 15 KTS
Visibility
10,000+ meters
Flight Rules
MVFR
Cloud Levels
  • Broken at 1,400' AGL
  • Overcast at 2,900' AGL
Temperature
C / 46°F
Dewpoint
C / 43°F
Humidity
87%
Altimeter
29.53" Hg
Pressure
999.92 hPa
Previous

1 hour ago

LFPN 271830Z AUTO 23014KT 9999 BKN012 OVC017 08/07 Q1001 TEMPO 22015G35KT 4000 -SHRA BKN010 SCT015TCU
Observed
Jan-27 @ 18:30 UTC
Wind
  • 230° at 14 KTS
Visibility
10,000+ meters
Flight Rules
MVFR
Cloud Levels
  • Broken at 1,200' AGL
  • Overcast at 1,700' AGL
Temperature
C / 46°F
Dewpoint
C / 45°F
Humidity
93%
Altimeter
29.56" Hg
Pressure
1000.92 hPa